Time;durP1;ratioP1;P1;durP2;ratioP2;P2;SDS_P1;SDS_P2;PMS_P1;PMS_P2;Temp;Humidity;BMP_temperature;BMP_pressure;BME280_temperature;BME280_humidity;BME280_pressure;Samples;Min_cycle;Max_cycle;Signal;HPM_P1;HPM_P2
2022/03/25 00:00:40;;;;;;;364.52;104.53;;;1.70;99.90;;;;;;5036342;28;20399;-80
2022/03/25 00:03:06;;;;;;;391.38;107.25;;;1.60;99.90;;;;;;5036759;28;20049;-80
2022/03/25 00:05:32;;;;;;;399.10;104.00;;;1.60;99.90;;;;;;5032847;28;20042;-80
2022/03/25 00:07:58;;;;;;;423.30;107.93;;;1.60;99.90;;;;;;5016133;28;20041;-80
2022/03/25 00:10:23;;;;;;;405.55;107.40;;;1.70;99.90;;;;;;5015880;28;20060;-80
2022/03/25 00:12:49;;;;;;;420.25;112.45;;;1.70;99.90;;;;;;5014919;28;20033;-80
2022/03/25 00:15:16;;;;;;;402.92;108.85;;;1.70;99.90;;;;;;5015850;28;20539;-80
2022/03/25 00:17:42;;;;;;;373.92;108.22;;;1.70;99.90;;;;;;5015947;28;20042;-80
2022/03/25 00:20:08;;;;;;;422.73;106.03;;;1.60;99.90;;;;;;5015829;28;20072;-80
2022/03/25 00:22:34;;;;;;;367.95;99.68;;;1.50;99.90;;;;;;5015567;28;20045;-80
2022/03/25 00:25:00;;;;;;;367.02;103.30;;;1.40;99.90;;;;;;5015646;28;20072;-80
2022/03/25 00:27:26;;;;;;;400.50;104.00;;;1.30;99.90;;;;;;5015349;28;20121;-80
2022/03/25 00:29:51;;;;;;;373.90;100.07;;;1.20;99.90;;;;;;5015985;28;20095;-80
2022/03/25 00:32:17;;;;;;;365.73;96.38;;;1.10;99.90;;;;;;5015675;28;20503;-80
2022/03/25 00:34:43;;;;;;;425.98;106.05;;;1.00;99.90;;;;;;5017065;28;20033;-80
2022/03/25 00:37:10;;;;;;;398.60;101.50;;;1.00;99.90;;;;;;5029752;28;20042;-80
2022/03/25 00:39:36;;;;;;;335.77;95.63;;;1.10;99.90;;;;;;5015377;28;20046;-80
2022/03/25 00:42:03;;;;;;;366.13;96.75;;;1.00;99.90;;;;;;5015417;28;20050;-80
2022/03/25 00:44:29;;;;;;;405.00;109.90;;;0.90;99.90;;;;;;5016108;28;20132;-80
2022/03/25 00:46:54;;;;;;;418.27;109.60;;;1.30;99.90;;;;;;5015546;28;20117;-80
2022/03/25 00:49:20;;;;;;;465.17;110.47;;;1.00;99.90;;;;;;5015952;28;20041;-80
2022/03/25 00:51:46;;;;;;;428.45;113.18;;;1.00;99.90;;;;;;5015804;28;20141;-80
2022/03/25 00:54:13;;;;;;;455.20;114.82;;;1.00;99.90;;;;;;5024376;28;20526;-80
2022/03/25 00:56:39;;;;;;;455.95;113.47;;;1.00;99.90;;;;;;5034601;28;20399;-80
2022/03/25 00:59:04;;;;;;;497.58;116.82;;;0.90;99.90;;;;;;5035008;28;20048;-80
2022/03/25 01:01:30;;;;;;;493.13;115.35;;;1.00;99.90;;;;;;5035653;28;20048;-80
2022/03/25 01:03:56;;;;;;;463.60;118.72;;;1.00;99.90;;;;;;5035453;28;20042;-80
2022/03/25 01:06:21;;;;;;;453.65;118.90;;;1.10;99.90;;;;;;5023229;28;20424;-80
2022/03/25 01:08:47;;;;;;;490.23;115.88;;;1.20;99.90;;;;;;5016623;28;20038;-80
2022/03/25 01:11:13;;;;;;;476.67;122.13;;;1.10;99.90;;;;;;5016193;28;20056;-80
2022/03/25 01:13:39;;;;;;;508.00;122.28;;;1.40;99.90;;;;;;5015788;28;20041;-80
2022/03/25 01:16:07;;;;;;;473.85;119.40;;;1.30;99.90;;;;;;5016540;28;20257;-80
2022/03/25 01:18:33;;;;;;;513.83;125.60;;;1.20;99.90;;;;;;5016199;28;20124;-80
2022/03/25 01:21:02;;;;;;;473.73;117.57;;;1.10;99.90;;;;;;5015507;28;20131;-80
2022/03/25 01:23:28;;;;;;;426.15;113.72;;;1.00;99.90;;;;;;5014597;28;20401;-80
2022/03/25 01:25:54;;;;;;;513.58;124.82;;;1.00;99.90;;;;;;5022899;28;20033;-80
2022/03/25 01:28:19;;;;;;;471.88;114.63;;;0.90;99.90;;;;;;5034638;28;20407;-80
2022/03/25 01:30:46;;;;;;;464.05;114.50;;;0.90;99.90;;;;;;5035094;28;20041;-80
2022/03/25 01:33:11;;;;;;;432.33;114.40;;;0.80;99.90;;;;;;5034824;28;20049;-80
2022/03/25 01:35:37;;;;;;;478.63;110.97;;;0.70;99.90;;;;;;5033744;28;20051;-80
2022/03/25 01:38:03;;;;;;;444.95;109.05;;;0.60;99.90;;;;;;5034856;28;20094;-80
2022/03/25 01:40:29;;;;;;;390.70;108.57;;;0.50;99.90;;;;;;5034769;28;20052;-80
2022/03/25 01:42:57;;;;;;;401.55;105.00;;;0.40;99.90;;;;;;5034223;28;20088;-80
2022/03/25 01:45:32;;;;;;;434.42;113.65;;;0.40;99.90;;;;;;5026840;28;20508;-80
2022/03/25 01:47:59;;;;;;;514.97;118.63;;;0.40;99.90;;;;;;5014433;28;20124;-80
2022/03/25 01:50:25;;;;;;;545.92;113.65;;;0.60;99.90;;;;;;5014794;28;20049;-80
2022/03/25 01:52:51;;;;;;;514.60;118.68;;;0.70;99.90;;;;;;5014632;28;20033;-80
2022/03/25 01:55:24;;;;;;;501.00;120.65;;;0.70;99.90;;;;;;5027787;28;20038;-80
2022/03/25 01:57:50;;;;;;;541.72;118.95;;;1.10;99.90;;;;;;5014962;28;20050;-80
2022/03/25 02:00:18;;;;;;;486.13;125.43;;;2.00;99.90;;;;;;5014647;28;20056;-80
2022/03/25 02:02:45;;;;;;;508.75;123.28;;;1.60;99.90;;;;;;5014930;28;20081;-80
2022/03/25 02:05:10;;;;;;;534.20;126.90;;;1.70;99.90;;;;;;5014832;28;20132;-80
2022/03/25 02:07:36;;;;;;;511.23;130.23;;;1.60;99.90;;;;;;5014068;28;20046;-80
2022/03/25 02:10:02;;;;;;;483.70;122.07;;;1.50;99.90;;;;;;5013952;28;20038;-80
2022/03/25 02:12:29;;;;;;;545.33;131.30;;;1.40;99.90;;;;;;5014165;28;20102;-80
2022/03/25 02:14:57;;;;;;;462.25;120.20;;;1.20;99.90;;;;;;5025589;28;20038;-80
2022/03/25 02:17:22;;;;;;;449.40;115.53;;;1.00;99.90;;;;;;5014102;28;20068;-80
2022/03/25 02:19:49;;;;;;;437.80;114.63;;;0.80;99.90;;;;;;5013967;28;20113;-80
2022/03/25 02:22:14;;;;;;;442.90;106.97;;;0.60;99.90;;;;;;5024345;28;20105;-80
2022/03/25 02:24:40;;;;;;;406.85;101.82;;;0.50;99.90;;;;;;5033284;28;20045;-80
2022/03/25 02:27:06;;;;;;;360.42;93.03;;;0.30;99.90;;;;;;5033514;28;20037;-80
2022/03/25 02:29:33;;;;;;;370.13;93.47;;;0.30;99.90;;;;;;5033854;28;20052;-80
2022/03/25 02:31:59;;;;;;;368.05;95.47;;;0.20;99.90;;;;;;5033706;28;20050;-80
2022/03/25 02:34:24;;;;;;;367.58;87.95;;;0.10;99.90;;;;;;5033232;28;20041;-80
2022/03/25 02:36:50;;;;;;;350.83;91.35;;;0.10;99.90;;;;;;5018073;28;20045;-80
2022/03/25 02:39:17;;;;;;;351.35;89.13;;;0.10;99.90;;;;;;5018254;28;20165;-80
2022/03/25 02:44:18;;;;;;;322.57;83.87;;;-0.10;99.90;;;;;;5070206;22;20532;-77
2022/03/25 02:46:43;;;;;;;352.95;87.00;;;-0.30;99.90;;;;;;5019092;28;20046;-77
2022/03/25 02:49:09;;;;;;;361.23;87.35;;;-0.30;99.90;;;;;;4995575;28;20200;-76
2022/03/25 02:51:35;;;;;;;354.95;84.85;;;-0.30;99.90;;;;;;5003693;28;20042;-76
2022/03/25 02:54:00;;;;;;;311.92;82.80;;;0.10;99.90;;;;;;5015926;28;20477;-76
2022/03/25 02:56:26;;;;;;;292.13;78.78;;;-0.40;99.90;;;;;;5016301;28;20081;-76
2022/03/25 02:58:53;;;;;;;296.10;78.03;;;-0.40;99.90;;;;;;5016290;28;20044;-77
2022/03/25 03:01:18;;;;;;;300.00;76.47;;;-0.40;99.90;;;;;;4998192;28;20445;-77
2022/03/25 03:03:45;;;;;;;288.50;78.90;;;-0.40;99.90;;;;;;5008265;28;20042;-77
2022/03/25 03:06:10;;;;;;;277.98;74.50;;;-0.50;99.90;;;;;;5015013;28;20404;-77
2022/03/25 03:08:36;;;;;;;270.85;72.45;;;-0.60;99.90;;;;;;5016265;28;20053;-77
2022/03/25 03:11:04;;;;;;;274.90;75.57;;;-0.60;99.90;;;;;;5015975;28;20085;-77
2022/03/25 03:13:30;;;;;;;288.38;78.25;;;-0.60;99.90;;;;;;5015616;28;20030;-76
2022/03/25 03:15:56;;;;;;;299.95;77.30;;;-0.60;99.90;;;;;;5014671;28;20443;-76
2022/03/25 03:18:22;;;;;;;293.73;74.47;;;-0.60;99.90;;;;;;4994821;28;20125;-76
2022/03/25 03:20:47;;;;;;;294.38;78.47;;;-0.60;99.90;;;;;;4994933;28;20099;-76
2022/03/25 03:23:13;;;;;;;278.02;74.70;;;-0.60;99.90;;;;;;5003434;28;20041;-76
2022/03/25 03:25:39;;;;;;;281.45;72.32;;;-0.60;99.90;;;;;;5014413;28;20046;-76
2022/03/25 03:28:05;;;;;;;261.08;68.60;;;-0.60;99.90;;;;;;5014190;28;20045;-77
2022/03/25 03:30:31;;;;;;;280.50;71.32;;;-0.60;99.90;;;;;;5014435;28;20048;-76
2022/03/25 03:33:04;;;;;;;258.38;74.30;;;-0.70;99.90;;;;;;5015087;28;20404;-76
2022/03/25 03:35:31;;;;;;;261.42;71.60;;;-0.70;99.90;;;;;;5013817;28;20072;-76
2022/03/25 03:37:57;;;;;;;276.45;73.60;;;-0.80;99.90;;;;;;5014784;28;20061;-76
2022/03/25 03:40:23;;;;;;;252.65;67.28;;;-0.80;99.90;;;;;;5015432;28;20042;-76
2022/03/25 03:42:49;;;;;;;240.18;68.63;;;-0.80;99.90;;;;;;5015010;28;20050;-77
2022/03/25 03:45:15;;;;;;;258.63;68.30;;;-0.80;99.90;;;;;;5015328;28;20050;-76
2022/03/25 03:47:42;;;;;;;240.77;67.47;;;-0.80;99.90;;;;;;5015491;28;20052;-77
2022/03/25 03:50:11;;;;;;;232.75;63.10;;;-0.90;99.90;;;;;;5013967;28;20064;-76
2022/03/25 03:52:38;;;;;;;221.13;61.55;;;-0.90;99.90;;;;;;4997488;28;20113;-77
2022/03/25 03:55:05;;;;;;;217.55;61.63;;;-0.90;99.90;;;;;;4997189;28;20046;-77
2022/03/25 03:57:31;;;;;;;210.38;59.08;;;-0.90;99.90;;;;;;5015336;28;20065;-77
2022/03/25 03:59:57;;;;;;;202.00;60.97;;;-1.00;99.90;;;;;;5015575;28;20045;-76
2022/03/25 04:02:23;;;;;;;193.00;58.42;;;-1.10;99.90;;;;;;5013910;28;20050;-76
2022/03/25 04:04:48;;;;;;;207.20;62.53;;;-1.20;99.90;;;;;;5015027;28;20052;-76
2022/03/25 04:07:15;;;;;;;197.77;56.80;;;-1.20;99.90;;;;;;5014926;28;20191;-76
2022/03/25 04:09:41;;;;;;;202.25;57.97;;;-1.10;99.90;;;;;;5014821;28;20046;-77
2022/03/25 04:12:09;;;;;;;190.75;53.78;;;-1.10;99.90;;;;;;5013736;28;20053;-77
2022/03/25 04:14:35;;;;;;;177.88;53.63;;;-1.10;99.90;;;;;;5015099;28;20100;-76
2022/03/25 04:17:01;;;;;;;192.82;55.30;;;-1.20;99.90;;;;;;5013535;28;20041;-76
2022/03/25 04:19:27;;;;;;;181.15;52.88;;;-1.20;99.90;;;;;;5013815;28;20554;-76
2022/03/25 04:21:52;;;;;;;173.02;49.75;;;-1.30;99.90;;;;;;5014965;28;20049;-76
2022/03/25 04:24:18;;;;;;;175.40;54.15;;;-1.20;99.90;;;;;;5014551;28;20129;-77
2022/03/25 04:26:43;;;;;;;175.82;51.80;;;-1.10;99.90;;;;;;5014202;28;20045;-77
2022/03/25 04:29:09;;;;;;;170.18;51.13;;;-0.50;99.90;;;;;;5014549;28;20042;-77
2022/03/25 04:31:34;;;;;;;171.88;50.00;;;-0.20;99.90;;;;;;5013449;28;20042;-77
2022/03/25 04:34:00;;;;;;;157.05;50.42;;;-0.30;99.90;;;;;;5014300;28;20118;-77
2022/03/25 04:36:25;;;;;;;155.18;49.97;;;-0.50;99.90;;;;;;5013932;28;20369;-76
2022/03/25 04:38:51;;;;;;;168.93;50.08;;;-1.40;99.90;;;;;;5014457;28;20144;-76
2022/03/25 04:41:17;;;;;;;148.07;47.75;;;-1.00;99.90;;;;;;5014354;28;20088;-77
2022/03/25 04:43:43;;;;;;;153.93;49.88;;;-1.20;99.90;;;;;;5011846;28;20065;-77
2022/03/25 04:46:09;;;;;;;163.60;50.45;;;-1.20;99.90;;;;;;5013043;28;20452;-77
2022/03/25 04:48:36;;;;;;;163.85;48.92;;;-1.30;99.90;;;;;;5013444;28;20377;-76
2022/03/25 04:51:02;;;;;;;165.65;50.67;;;-1.30;99.90;;;;;;5013083;28;20037;-77
2022/03/25 04:53:28;;;;;;;163.85;49.83;;;-1.30;99.90;;;;;;5012927;28;20401;-77
2022/03/25 04:55:53;;;;;;;172.18;49.67;;;-1.30;99.90;;;;;;5012677;28;20046;-77
2022/03/25 04:58:20;;;;;;;159.70;51.25;;;-1.30;99.90;;;;;;5012369;28;20053;-77
2022/03/25 05:00:47;;;;;;;171.82;51.15;;;-1.40;99.90;;;;;;5013430;28;20400;-77
2022/03/25 05:03:13;;;;;;;158.52;49.97;;;-1.50;99.90;;;;;;5012996;28;20056;-77
2022/03/25 05:05:42;;;;;;;160.40;49.38;;;-1.50;99.90;;;;;;5011425;28;20128;-77
2022/03/25 05:08:09;;;;;;;164.45;50.67;;;-1.50;99.90;;;;;;5011877;28;20409;-77
2022/03/25 05:10:35;;;;;;;165.32;51.55;;;-1.50;99.90;;;;;;5012789;28;20125;-77
2022/03/25 05:13:01;;;;;;;176.00;53.30;;;-1.50;99.90;;;;;;5013272;28;20042;-77
2022/03/25 05:15:26;;;;;;;173.50;52.63;;;-1.50;99.90;;;;;;5011546;28;20131;-77
2022/03/25 05:17:52;;;;;;;184.80;54.35;;;-1.30;99.90;;;;;;5012941;28;20485;-77
2022/03/25 05:20:19;;;;;;;176.10;52.55;;;-1.50;99.90;;;;;;5012885;28;20046;-77
2022/03/25 05:22:49;;;;;;;178.13;53.50;;;-1.50;99.90;;;;;;5012649;28;20517;-77
2022/03/25 05:25:16;;;;;;;171.43;52.50;;;-1.50;99.90;;;;;;5012532;28;20061;-77
2022/03/25 05:27:52;;;;;;;186.63;52.22;;;-1.50;99.90;;;;;;5012473;28;20132;-77
2022/03/25 05:30:24;;;;;;;181.88;53.88;;;-1.50;99.90;;;;;;5011671;28;20045;-77
2022/03/25 05:32:49;;;;;;;170.88;50.58;;;-1.50;99.90;;;;;;5011632;28;20052;-77
2022/03/25 05:35:16;;;;;;;161.15;53.60;;;-1.50;99.90;;;;;;5012095;28;20463;-77
2022/03/25 05:37:42;;;;;;;164.32;52.03;;;-1.50;99.90;;;;;;5012572;28;20050;-78
2022/03/25 05:40:09;;;;;;;179.85;56.53;;;-1.00;99.90;;;;;;5012823;28;20041;-77
2022/03/25 05:42:34;;;;;;;174.15;52.40;;;-1.40;99.90;;;;;;4976258;28;1045303;-77
2022/03/25 05:45:00;;;;;;;165.20;51.80;;;-1.30;99.90;;;;;;5013404;28;20052;-77
2022/03/25 05:47:26;;;;;;;166.48;53.38;;;-1.20;99.90;;;;;;5013667;28;20046;-78
2022/03/25 05:49:52;;;;;;;157.25;51.38;;;-1.10;99.90;;;;;;5012791;28;20064;-77
2022/03/25 05:52:17;;;;;;;160.05;51.20;;;-1.10;99.90;;;;;;5009815;28;20042;-77
2022/03/25 05:54:43;;;;;;;166.93;51.20;;;-1.10;99.90;;;;;;5009191;28;20282;-77
2022/03/25 05:57:09;;;;;;;166.10;53.25;;;-1.10;99.90;;;;;;5010549;28;20116;-77
2022/03/25 05:59:34;;;;;;;173.05;53.88;;;-1.00;99.90;;;;;;5010430;28;20518;-78
2022/03/25 06:02:00;;;;;;;170.15;53.85;;;-1.00;99.90;;;;;;5010340;28;20077;-77
2022/03/25 06:04:25;;;;;;;168.93;52.95;;;-1.00;99.90;;;;;;5010632;28;20042;-77
2022/03/25 06:06:51;;;;;;;156.85;53.67;;;-1.00;99.90;;;;;;5009744;28;20050;-77
2022/03/25 06:09:16;;;;;;;173.25;53.70;;;-0.90;99.90;;;;;;5013014;28;20108;-77
2022/03/25 06:11:42;;;;;;;185.00;57.72;;;-0.80;99.90;;;;;;5016219;28;20042;-77
2022/03/25 06:14:07;;;;;;;171.05;54.05;;;-0.70;99.90;;;;;;5017306;28;20070;-78
2022/03/25 06:16:33;;;;;;;195.77;57.40;;;-0.50;99.90;;;;;;5017319;28;20551;-78
2022/03/25 06:18:59;;;;;;;200.10;59.67;;;0.10;99.90;;;;;;5017266;28;20048;-78
2022/03/25 06:21:25;;;;;;;182.65;57.97;;;-0.20;99.90;;;;;;5016903;28;20092;-78
2022/03/25 06:23:51;;;;;;;204.50;63.03;;;0.00;99.90;;;;;;5015529;28;20045;-79
2022/03/25 06:26:17;;;;;;;245.23;66.28;;;0.10;99.90;;;;;;5015817;28;20154;-78
2022/03/25 06:28:42;;;;;;;245.60;71.90;;;0.50;99.90;;;;;;5017154;28;20511;-78
2022/03/25 06:31:08;;;;;;;255.07;71.50;;;1.00;99.90;;;;;;5016991;28;20117;-77
2022/03/25 06:33:34;;;;;;;267.80;76.57;;;1.10;99.90;;;;;;5015769;28;20053;-78
2022/03/25 06:36:00;;;;;;;324.73;84.30;;;1.10;99.90;;;;;;5016906;28;20091;-78
2022/03/25 06:38:26;;;;;;;320.98;84.25;;;1.30;99.90;;;;;;5015771;28;20050;-78
2022/03/25 06:40:52;;;;;;;305.30;81.93;;;1.50;99.90;;;;;;5016955;28;20048;-77
2022/03/25 06:43:18;;;;;;;297.15;80.25;;;1.50;99.90;;;;;;5016990;28;20133;-77
2022/03/25 06:45:43;;;;;;;267.55;80.43;;;1.70;99.90;;;;;;5017089;28;20516;-78
2022/03/25 06:48:09;;;;;;;268.23;79.20;;;1.90;99.90;;;;;;5016763;28;20033;-78
2022/03/25 06:50:35;;;;;;;289.20;86.30;;;2.40;99.90;;;;;;5016898;28;20045;-78
2022/03/25 06:53:02;;;;;;;314.77;87.88;;;2.00;99.90;;;;;;5014689;28;20058;-78
2022/03/25 06:55:28;;;;;;;312.95;90.32;;;2.70;99.90;;;;;;5016757;28;20222;-77
2022/03/25 06:57:54;;;;;;;282.80;80.28;;;2.80;99.90;;;;;;5014428;28;20050;-78
2022/03/25 07:00:21;;;;;;;293.25;83.25;;;2.90;99.90;;;;;;5003292;28;20068;-77
2022/03/25 07:02:47;;;;;;;256.25;78.22;;;2.90;99.90;;;;;;4997859;28;20039;-78
2022/03/25 07:05:13;;;;;;;332.08;93.22;;;3.00;99.90;;;;;;4995350;28;20050;-78
2022/03/25 07:07:40;;;;;;;273.02;81.50;;;3.20;99.90;;;;;;4997037;28;20072;-78
2022/03/25 07:10:09;;;;;;;307.08;92.18;;;3.30;99.90;;;;;;4996985;28;20097;-78
2022/03/25 07:12:38;;;;;;;328.63;97.65;;;3.80;99.90;;;;;;4995279;28;20093;-78
2022/03/25 07:15:05;;;;;;;280.08;88.15;;;4.50;99.90;;;;;;4996959;28;20035;-78
2022/03/25 07:17:31;;;;;;;265.60;89.30;;;4.90;99.90;;;;;;4995637;28;20042;-78
2022/03/25 07:19:58;;;;;;;274.88;85.25;;;5.00;99.90;;;;;;4996398;28;20049;-79
2022/03/25 07:22:24;;;;;;;264.60;86.63;;;5.20;99.90;;;;;;4976428;28;20053;-78
2022/03/25 07:24:50;;;;;;;238.80;83.82;;;5.30;99.90;;;;;;4994462;28;20477;-78
2022/03/25 07:27:15;;;;;;;227.25;79.13;;;5.40;99.90;;;;;;4977225;28;20050;-78
2022/03/25 07:29:41;;;;;;;217.93;79.82;;;5.60;99.90;;;;;;4993041;28;20161;-78
2022/03/25 07:32:07;;;;;;;209.38;79.82;;;5.70;99.90;;;;;;4993102;28;20051;-79
2022/03/25 07:34:35;;;;;;;196.20;73.35;;;5.80;99.90;;;;;;4994127;28;20050;-79
2022/03/25 07:37:01;;;;;;;181.80;70.22;;;5.90;99.90;;;;;;4994440;28;20054;-79
2022/03/25 07:39:27;;;;;;;151.88;62.67;;;6.00;99.90;;;;;;4992376;28;20074;-79
2022/03/25 07:41:53;;;;;;;160.38;65.30;;;6.00;99.90;;;;;;4994180;28;20131;-79
2022/03/25 07:44:19;;;;;;;145.27;62.65;;;6.10;99.90;;;;;;4993020;28;20062;-79
2022/03/25 07:46:45;;;;;;;149.00;59.40;;;6.30;99.90;;;;;;4993623;28;20097;-79
2022/03/25 07:49:10;;;;;;;126.57;56.45;;;6.50;99.90;;;;;;4993478;28;20440;-79
2022/03/25 07:51:36;;;;;;;112.75;54.60;;;6.60;99.90;;;;;;4991954;28;20046;-79
2022/03/25 07:54:01;;;;;;;101.15;49.10;;;6.70;99.90;;;;;;4991864;28;20046;-79
2022/03/25 07:56:28;;;;;;;102.07;47.42;;;7.00;99.90;;;;;;4992821;28;20081;-79
2022/03/25 07:58:53;;;;;;;80.57;43.95;;;7.10;99.90;;;;;;4976154;28;20074;-79
2022/03/25 08:01:19;;;;;;;64.55;34.78;;;7.30;99.90;;;;;;5005447;28;20081;-79
2022/03/25 08:03:44;;;;;;;62.13;34.67;;;7.40;99.90;;;;;;5012457;28;20045;-80
2022/03/25 08:06:12;;;;;;;61.30;34.53;;;7.60;99.90;;;;;;5012952;28;20061;-76
2022/03/25 08:08:38;;;;;;;57.13;32.22;;;7.60;99.90;;;;;;5014540;28;20084;-80
2022/03/25 08:11:04;;;;;;;64.25;33.70;;;7.70;99.90;;;;;;5013798;28;20077;-79
2022/03/25 08:13:29;;;;;;;55.10;30.33;;;7.80;99.90;;;;;;5013509;28;20100;-79
2022/03/25 08:15:55;;;;;;;49.72;28.50;;;8.00;99.90;;;;;;5014047;28;20123;-80
2022/03/25 08:18:21;;;;;;;47.88;26.83;;;8.20;99.90;;;;;;5014647;28;20461;-80
2022/03/25 08:20:48;;;;;;;50.40;28.02;;;8.20;99.90;;;;;;5014240;28;20049;-80
2022/03/25 08:28:50;;;;;;;49.88;27.67;;;8.60;99.90;;;;;;5014782;28;20538;-80
2022/03/25 08:31:16;;;;;;;49.88;28.00;;;8.70;99.90;;;;;;5014507;28;20096;-80
2022/03/25 08:33:42;;;;;;;44.33;27.02;;;8.80;99.90;;;;;;5012883;28;20042;-80
2022/03/25 08:36:08;;;;;;;52.20;27.48;;;9.00;99.90;;;;;;5008775;28;20298;-81
2022/03/25 08:38:34;;;;;;;46.55;27.30;;;9.20;99.90;;;;;;5004955;28;20050;-81
2022/03/25 08:40:59;;;;;;;51.33;27.73;;;9.40;99.90;;;;;;5012031;28;20054;-81
2022/03/25 08:43:26;;;;;;;50.15;26.67;;;9.50;99.90;;;;;;5010515;28;20064;-81
2022/03/25 08:45:52;;;;;;;43.95;26.50;;;9.80;99.90;;;;;;5015457;28;20057;-80
2022/03/25 08:48:18;;;;;;;48.45;26.40;;;9.90;99.90;;;;;;5013688;28;20342;-80
2022/03/25 08:50:43;;;;;;;45.42;24.95;;;10.10;99.90;;;;;;5014405;28;20049;-80
2022/03/25 08:53:09;;;;;;;42.55;25.73;;;11.10;99.90;;;;;;5014427;28;20519;-80
2022/03/25 08:55:35;;;;;;;46.30;27.33;;;11.20;99.90;;;;;;5014285;28;20424;-80
2022/03/25 08:58:00;;;;;;;42.03;25.65;;;11.70;99.90;;;;;;5014745;28;20053;-80
2022/03/25 09:00:26;;;;;;;43.40;23.85;;;11.90;99.90;;;;;;5013012;28;20045;-80
2022/03/25 09:02:52;;;;;;;41.83;24.38;;;11.80;99.90;;;;;;5014780;28;20092;-80
2022/03/25 09:05:18;;;;;;;45.95;26.98;;;11.90;99.90;;;;;;5014721;28;20045;-80
2022/03/25 09:07:44;;;;;;;37.85;23.75;;;12.00;99.90;;;;;;5014825;28;20081;-79
2022/03/25 09:10:14;;;;;;;37.65;22.77;;;12.10;99.90;;;;;;5013009;28;20053;-80
2022/03/25 09:12:41;;;;;;;38.17;23.98;;;12.30;99.90;;;;;;5015050;28;20046;-80
2022/03/25 09:15:09;;;;;;;40.85;24.33;;;12.40;99.90;;;;;;5014165;28;20078;-80
2022/03/25 09:17:35;;;;;;;40.78;24.00;;;12.40;99.90;;;;;;5012385;28;20057;-80
2022/03/25 09:20:03;;;;;;;45.55;24.70;;;12.60;99.90;;;;;;5013837;28;20052;-80
2022/03/25 09:22:31;;;;;;;49.95;27.58;;;12.90;99.90;;;;;;5013024;28;20050;-80
2022/03/25 09:24:56;;;;;;;42.08;26.15;;;13.10;99.90;;;;;;5013898;28;20053;-80
2022/03/25 09:27:22;;;;;;;42.83;23.67;;;13.10;99.90;;;;;;5014008;28;20050;-80
2022/03/25 09:29:47;;;;;;;39.63;24.23;;;13.20;99.90;;;;;;5014061;28;20081;-80
2022/03/25 09:32:13;;;;;;;40.10;23.17;;;13.60;99.10;;;;;;5015566;28;20042;-80
2022/03/25 09:37:22;;;;;;;49.58;28.58;;;13.90;99.90;;;;;;5013527;28;20412;-79
2022/03/25 09:39:50;;;;;;;46.03;27.77;;;14.10;97.40;;;;;;5012650;28;20054;-79
2022/03/25 09:42:16;;;;;;;42.72;24.80;;;14.00;93.10;;;;;;5013582;28;20393;-78
2022/03/25 09:44:42;;;;;;;39.38;23.92;;;13.80;94.80;;;;;;5012265;28;20049;-78
2022/03/25 09:47:14;;;;;;;39.72;23.92;;;13.90;92.00;;;;;;5012428;28;20521;-79
2022/03/25 09:49:40;;;;;;;40.70;23.92;;;13.90;93.40;;;;;;5011239;28;20504;-79
2022/03/25 09:52:07;;;;;;;47.17;25.45;;;13.80;92.60;;;;;;5010806;28;20508;-79
2022/03/25 09:54:34;;;;;;;35.58;22.73;;;14.10;98.10;;;;;;4993375;28;20046;-78
2022/03/25 09:57:00;;;;;;;39.25;23.10;;;14.00;84.60;;;;;;4993332;28;20436;-78
2022/03/25 09:59:26;;;;;;;38.45;23.25;;;14.30;92.50;;;;;;5009751;28;20523;-78
2022/03/25 10:01:52;;;;;;;38.88;23.17;;;14.60;90.70;;;;;;4993578;28;20350;-80
2022/03/25 10:04:46;;;;;;;34.97;20.67;;;14.00;83.00;;;;;;5010505;28;20109;-78
2022/03/25 10:07:23;;;;;;;41.33;21.67;;;14.10;89.00;;;;;;5011435;28;20056;-79
2022/03/25 10:10:10;;;;;;;39.45;20.73;;;14.40;87.60;;;;;;5012058;28;20052;-79
2022/03/25 10:12:38;;;;;;;38.33;19.77;;;14.00;77.10;;;;;;5013395;28;20443;-79
2022/03/25 10:15:21;;;;;;;39.33;22.38;;;14.10;74.60;;;;;;5011743;28;20077;-79
2022/03/25 10:17:57;;;;;;;90.68;35.00;;;14.30;73.60;;;;;;5013239;28;20523;-78
2022/03/25 10:20:54;;;;;;;45.20;23.48;;;14.60;71.90;;;;;;4995289;28;20064;-78
2022/03/25 10:23:20;;;;;;;40.17;21.35;;;14.80;70.00;;;;;;4995589;28;20077;-81
2022/03/25 10:25:47;;;;;;;46.05;25.35;;;14.90;65.30;;;;;;4994973;28;20464;-80
2022/03/25 10:28:31;;;;;;;40.30;20.98;;;14.90;64.40;;;;;;5011362;28;20112;-81
2022/03/25 10:31:02;;;;;;;39.45;23.77;;;15.00;61.80;;;;;;5000979;28;20042;-79
2022/03/25 10:33:34;;;;;;;39.30;20.48;;;15.40;61.80;;;;;;4985123;28;20042;-80
2022/03/25 10:36:08;;;;;;;33.97;20.67;;;15.00;60.10;;;;;;5000608;28;20430;-79
2022/03/25 10:38:46;;;;;;;52.97;21.55;;;15.20;53.50;;;;;;5016507;28;20121;-80
2022/03/25 10:41:23;;;;;;;34.80;19.10;;;15.60;53.90;;;;;;5017131;28;20104;-80
2022/03/25 10:44:03;;;;;;;33.30;16.95;;;15.70;47.00;;;;;;5000286;28;20089;-80
2022/03/25 10:46:33;;;;;;;35.10;17.48;;;15.80;35.50;;;;;;5000474;28;20038;-80
2022/03/25 10:49:00;;;;;;;28.67;17.58;;;16.00;37.30;;;;;;5016011;28;20052;-80
2022/03/25 10:51:26;;;;;;;35.50;16.80;;;16.20;42.20;;;;;;4990060;28;20116;-80
2022/03/25 10:53:57;;;;;;;33.28;15.75;;;16.50;33.60;;;;;;4987550;28;20372;-80
2022/03/25 10:56:23;;;;;;;25.05;14.13;;;16.80;30.40;;;;;;5005127;28;20037;-80
2022/03/25 10:58:57;;;;;;;30.80;16.55;;;16.60;30.80;;;;;;5015379;28;20510;-80
2022/03/25 11:01:24;;;;;;;28.83;16.08;;;16.60;29.50;;;;;;5010588;28;20081;-80
2022/03/25 11:03:50;;;;;;;23.88;13.05;;;16.90;26.90;;;;;;5014160;28;20053;-80
2022/03/25 11:06:18;;;;;;;27.05;12.88;;;16.80;31.30;;;;;;5013760;28;20038;-80
2022/03/25 11:08:45;;;;;;;27.27;13.88;;;16.90;27.70;;;;;;5006913;28;20050;-80
2022/03/25 11:11:14;;;;;;;23.42;12.65;;;17.20;27.80;;;;;;5015251;28;20049;-80
2022/03/25 11:13:42;;;;;;;27.88;16.63;;;17.70;25.40;;;;;;4999058;28;20057;-80
2022/03/25 11:16:08;;;;;;;36.72;17.73;;;17.10;25.40;;;;;;5015354;28;20042;-80
2022/03/25 11:18:37;;;;;;;37.47;18.70;;;17.30;24.10;;;;;;5015097;28;20412;-80
2022/03/25 11:21:05;;;;;;;40.15;18.25;;;17.20;23.90;;;;;;5015224;28;20042;-80
2022/03/25 11:23:46;;;;;;;35.72;20.13;;;16.80;23.60;;;;;;4998664;28;20396;-80
2022/03/25 11:26:16;;;;;;;36.88;18.65;;;16.80;26.10;;;;;;5015463;28;20049;-81
2022/03/25 11:28:43;;;;;;;33.03;17.98;;;16.90;25.60;;;;;;4998988;28;20057;-80
2022/03/25 11:31:09;;;;;;;40.03;19.77;;;16.80;25.10;;;;;;4996286;28;20038;-80
2022/03/25 11:34:10;;;;;;;34.45;17.23;;;17.20;24.30;;;;;;4990745;28;20038;-80
2022/03/25 11:36:41;;;;;;;34.42;16.80;;;16.90;25.40;;;;;;5004950;28;20038;-80
2022/03/25 11:39:22;;;;;;;31.55;16.88;;;16.80;27.20;;;;;;4990862;28;20049;-80
2022/03/25 11:41:49;;;;;;;36.67;17.85;;;16.90;25.90;;;;;;4991247;28;20041;-80
2022/03/25 11:44:14;;;;;;;32.47;17.30;;;17.00;26.40;;;;;;5008893;28;20053;-80
2022/03/25 11:46:59;;;;;;;33.53;16.67;;;17.00;25.80;;;;;;4986537;28;20104;-80
2022/03/25 11:49:26;;;;;;;32.25;18.10;;;17.00;26.40;;;;;;4986724;28;20085;-80
2022/03/25 11:51:52;;;;;;;33.08;16.75;;;17.30;24.90;;;;;;4988669;28;20396;-80
2022/03/25 11:54:42;;;;;;;31.80;17.58;;;17.00;25.80;;;;;;5001984;28;20042;-80
2022/03/25 11:57:28;;;;;;;34.28;16.35;;;17.00;25.60;;;;;;4983600;28;20522;-80
2022/03/25 11:59:56;;;;;;;31.30;17.77;;;17.20;24.10;;;;;;4999307;28;20040;-80
2022/03/25 12:02:26;;;;;;;33.33;18.52;;;17.00;25.30;;;;;;4984295;28;20043;-79
2022/03/25 12:04:52;;;;;;;29.75;16.38;;;17.00;24.50;;;;;;4985863;28;20042;-79
2022/03/25 12:07:18;;;;;;;33.15;18.38;;;16.90;23.70;;;;;;4983168;28;20357;-80
2022/03/25 12:09:46;;;;;;;261.02;35.95;;;16.80;22.80;;;;;;4983164;28;20084;-79
2022/03/25 12:12:13;;;;;;;29.25;16.45;;;16.70;23.80;;;;;;4996129;28;20108;-80
2022/03/25 12:15:13;;;;;;;40.42;17.80;;;17.10;25.00;;;;;;4992509;28;20077;-79
2022/03/25 12:17:39;;;;;;;34.88;18.33;;;16.80;22.10;;;;;;4974863;28;20062;-80
2022/03/25 12:20:06;;;;;;;31.15;18.13;;;16.90;22.70;;;;;;4979086;28;20050;-80
2022/03/25 12:22:33;;;;;;;32.10;17.20;;;17.00;21.70;;;;;;4979086;28;20065;-80
2022/03/25 12:25:14;;;;;;;42.85;18.42;;;17.20;19.90;;;;;;4978654;28;20100;-80
2022/03/25 12:27:41;;;;;;;32.15;16.90;;;17.20;20.10;;;;;;4978370;28;20046;-80
2022/03/25 12:30:08;;;;;;;34.92;18.27;;;17.50;18.40;;;;;;4977788;28;20091;-81
2022/03/25 12:32:36;;;;;;;33.67;19.92;;;17.10;18.10;;;;;;4977633;28;20045;-81
2022/03/25 12:35:03;;;;;;;35.05;19.02;;;17.20;20.40;;;;;;4978286;28;20455;-81